EBCI/CRL METAR and TAF weather

Enter ICAO airport designator
Station Type Date Time Source
EBCI METAR 2019/10/18 06:20 UTC NOAA

EBCI 180620Z 19014KT 160V220 9999 FEW017 SCT040 13/10 Q1004 TEMPO 4000 SHRA SCT010


Station Type Date Time Source
EBCI Decoded METAR 2019/10/18 06:20 UTC NOAA

Charleroi / Gosselies, Belgium (EBCI) 50-28N 004-27E 192M
Oct 18, 2019 - 02:20 AM EDT / 2019.10.18 0620 UTC
Wind: from the S (190 degrees) at 16 MPH (14 KT) (direction variable):0
Visibility: greater than 7 mile(s):0
Sky conditions: partly cloudy
Temperature: 55 F (13 C)
Dew Point: 50 F (10 C)
Relative Humidity: 81%
Pressure (altimeter): 29.65 in. Hg (1004 hPa)
ob: EBCI 180620Z 19014KT 160V220 9999 FEW017 SCT040 13/10 Q1004 TEMPO 4000 SHRA SCT010
cycle: 6

Station Type Date Time Source
EBCI TAF 2019/10/18 06:27 UTC NOAA

TAF EBCI 180507Z 1806/1912 19014KT 9999 SCT020 SCT030
TEMPO 1806/1814 23018G35KT 3500 SHRA BKN014CB PROB30
TEMPO 1807/1811 2500 TSRA
TEMPO 1906/1912 3000 RA RADZ SCT005 BKN008

Example: see airport list